Time;durP1;ratioP1;P1;durP2;ratioP2;P2;SDS_P1;SDS_P2;PMS_P1;PMS_P2;Temp;Humidity;BMP_temperature;BMP_pressure;BME280_temperature;BME280_humidity;BME280_pressure;Samples;Min_cycle;Max_cycle;Signal;HPM_P1;HPM_P2
2023/04/04 00:01:30;;;;;;;11.20;5.60;;;;;;;-0.43;97.26;99470.67;131997;1288;26491;-78
2023/04/04 00:04:33;;;;;;;10.10;5.20;;;;;;;-0.44;96.93;99472.85;132625;1265;22661;-77
2023/04/04 00:07:36;;;;;;;7.10;5.20;;;;;;;-0.48;97.15;99469.96;131958;1288;22649;-77
2023/04/04 00:10:38;;;;;;;7.70;5.30;;;;;;;-0.52;97.34;99468.65;131813;1287;22539;-77
2023/04/04 00:13:41;;;;;;;10.20;5.90;;;;;;;-0.57;97.38;99468.07;131902;1288;22559;-76
2023/04/04 00:16:44;;;;;;;8.00;4.80;;;;;;;-0.61;97.61;99467.77;131700;1287;24342;-77
2023/04/04 00:19:47;;;;;;;7.50;5.00;;;;;;;-0.65;97.58;99459.47;131796;1287;25409;-77
2023/04/04 00:22:49;;;;;;;10.10;5.30;;;;;;;-0.69;98.06;99465.55;131738;1287;24854;-76
2023/04/04 00:25:52;;;;;;;10.00;5.60;;;;;;;-0.74;98.43;99457.95;131729;1287;25356;-77
2023/04/04 00:28:55;;;;;;;7.80;5.30;;;;;;;-0.79;98.76;99459.61;131682;1287;22550;-77
2023/04/04 00:31:58;;;;;;;8.50;5.00;;;;;;;-0.85;99.09;99457.20;131680;1287;24207;-76
2023/04/04 00:35:01;;;;;;;6.50;4.20;;;;;;;-0.91;99.92;99451.75;131721;1287;22590;-76
2023/04/04 00:38:03;;;;;;;7.20;5.00;;;;;;;-0.98;100.00;99446.48;131690;1287;23829;-77
2023/04/04 00:41:06;;;;;;;7.30;4.70;;;;;;;-1.04;100.00;99443.05;131729;1287;25340;-77
2023/04/04 00:44:09;;;;;;;7.10;4.60;;;;;;;-1.09;100.00;99445.29;131727;1287;25538;-77
2023/04/04 00:47:12;;;;;;;7.60;5.10;;;;;;;-1.15;100.00;99443.73;131799;1288;24217;-77
2023/04/04 00:50:15;;;;;;;9.70;5.20;;;;;;;-1.22;100.00;99449.94;132031;1288;22486;-77
2023/04/04 00:53:18;;;;;;;5.80;5.20;;;;;;;-1.29;100.00;99449.11;131897;1288;24209;-77
2023/04/04 00:56:22;;;;;;;10.10;4.70;;;;;;;-1.35;100.00;99449.98;131720;1288;23033;-76
2023/04/04 00:59:25;;;;;;;7.30;5.20;;;;;;;-1.41;100.00;99448.09;131876;1287;22551;-77
2023/04/04 01:02:27;;;;;;;5.30;4.30;;;;;;;-1.47;100.00;99447.23;131956;1287;22689;-81
2023/04/04 01:05:30;;;;;;;9.70;5.00;;;;;;;-1.54;100.00;99444.38;132112;1273;23004;-80
2023/04/04 01:08:33;;;;;;;8.50;5.00;;;;;;;-1.63;100.00;99442.50;132228;1287;22481;-76
2023/04/04 01:11:36;;;;;;;8.00;5.10;;;;;;;-1.73;100.00;99449.04;132258;1287;22539;-78
2023/04/04 01:14:39;;;;;;;11.40;5.90;;;;;;;-1.83;100.00;99449.90;132198;1287;24238;-78
2023/04/04 01:17:43;;;;;;;10.60;5.30;;;;;;;-1.91;100.00;99450.20;132003;1287;22494;-77
2023/04/04 01:20:46;;;;;;;6.40;4.90;;;;;;;-1.98;100.00;99450.73;132121;1280;25286;-77
2023/04/04 01:23:48;;;;;;;11.30;5.80;;;;;;;-2.05;100.00;99450.41;131912;1287;22533;-77
2023/04/04 01:26:51;;;;;;;10.20;5.50;;;;;;;-2.09;100.00;99455.10;131865;1287;24255;-76
2023/04/04 01:29:54;;;;;;;5.60;4.80;;;;;;;-2.14;100.00;99458.96;131736;1287;22552;-76
2023/04/04 01:32:57;;;;;;;12.00;5.90;;;;;;;-2.21;100.00;99465.13;131672;1265;22540;-75
2023/04/04 01:35:59;;;;;;;8.70;4.90;;;;;;;-2.27;100.00;99457.40;131761;1271;22566;-77
2023/04/04 01:39:02;;;;;;;7.40;5.50;;;;;;;-2.35;100.00;99453.88;131780;1287;22533;-77
2023/04/04 01:42:05;;;;;;;11.60;6.20;;;;;;;-2.41;100.00;99452.66;131780;1287;25332;-77
2023/04/04 01:45:08;;;;;;;12.10;5.90;;;;;;;-2.45;100.00;99452.20;131639;1287;22548;-77
2023/04/04 01:48:11;;;;;;;8.70;5.30;;;;;;;-2.49;100.00;99450.37;131786;1288;22552;-77
2023/04/04 01:51:13;;;;;;;9.50;5.50;;;;;;;-2.54;100.00;99448.25;131786;1288;23055;-77
2023/04/04 01:54:17;;;;;;;7.00;5.20;;;;;;;-2.60;100.00;99444.09;131785;1288;25459;-77
2023/04/04 01:57:20;;;;;;;9.80;5.60;;;;;;;-2.65;100.00;99448.61;131694;1288;23890;-76
2023/04/04 02:00:23;;;;;;;10.30;6.10;;;;;;;-2.70;100.00;99450.62;131641;1288;22532;-76
2023/04/04 02:03:26;;;;;;;7.90;5.80;;;;;;;-2.76;100.00;99451.56;131726;1288;24260;-76
2023/04/04 02:06:29;;;;;;;10.70;5.40;;;;;;;-2.79;100.00;99454.30;131708;1288;22537;-76
2023/04/04 02:09:32;;;;;;;12.10;6.60;;;;;;;-2.82;100.00;99456.66;131719;1288;22552;-76
2023/04/04 02:12:35;;;;;;;8.00;5.70;;;;;;;-2.83;100.00;99462.90;131653;1288;22683;-75
2023/04/04 02:15:38;;;;;;;9.40;6.40;;;;;;;-2.87;100.00;99468.52;131673;1273;25466;-76
2023/04/04 02:18:40;;;;;;;7.60;5.90;;;;;;;-2.91;100.00;99468.72;131697;1288;25476;-76
2023/04/04 02:21:43;;;;;;;10.10;5.50;;;;;;;-2.95;100.00;99465.19;131778;1288;23872;-76
2023/04/04 02:24:46;;;;;;;8.50;5.60;;;;;;;-3.00;100.00;99467.84;131690;1287;24415;-76
2023/04/04 02:27:49;;;;;;;11.60;5.60;;;;;;;-3.04;100.00;99473.67;131654;1288;22552;-77
2023/04/04 02:30:51;;;;;;;10.70;7.00;;;;;;;-3.06;100.00;99475.48;131683;1288;22530;-77
2023/04/04 02:33:54;;;;;;;11.10;7.30;;;;;;;-3.08;100.00;99473.20;131590;1288;273950;-75
2023/04/04 02:36:57;;;;;;;10.50;7.40;;;;;;;-3.09;100.00;99470.83;131797;1288;22537;-78
2023/04/04 02:39:59;;;;;;;13.80;6.60;;;;;;;-3.09;100.00;99472.54;132004;1288;22547;-76
2023/04/04 02:43:02;;;;;;;12.30;6.70;;;;;;;-3.11;100.00;99474.68;131761;1288;25402;-76
2023/04/04 02:46:05;;;;;;;10.30;7.50;;;;;;;-3.13;100.00;99471.89;131709;1288;22652;-77
2023/04/04 02:49:08;;;;;;;13.60;6.50;;;;;;;-3.17;100.00;99472.77;131754;1288;24325;-77
2023/04/04 02:52:11;;;;;;;11.50;6.50;;;;;;;-3.21;100.00;99475.66;131714;1288;24266;-74
2023/04/04 02:55:13;;;;;;;19.40;7.90;;;;;;;-3.23;100.00;99476.10;131769;1288;22534;-76
2023/04/04 02:58:16;;;;;;;10.70;6.70;;;;;;;-3.23;100.00;99474.59;131750;1287;24235;-76
2023/04/04 03:01:19;;;;;;;14.60;7.00;;;;;;;-3.22;100.00;99472.65;131899;1288;22648;-78
2023/04/04 03:04:22;;;;;;;10.80;6.90;;;;;;;-3.19;100.00;99472.36;131726;1288;24369;-75
2023/04/04 03:07:25;;;;;;;11.20;7.30;;;;;;;-3.16;100.00;99466.05;131755;1288;22645;-76
2023/04/04 03:10:29;;;;;;;14.20;7.60;;;;;;;-3.12;100.00;99469.27;131980;1288;22495;-76
2023/04/04 03:13:32;;;;;;;23.50;8.00;;;;;;;-3.10;100.00;99466.12;131864;1288;24407;-75
2023/04/04 03:16:34;;;;;;;10.60;7.90;;;;;;;-3.11;100.00;99466.32;131773;1287;25440;-75
2023/04/04 03:19:37;;;;;;;11.40;7.80;;;;;;;-3.14;100.00;99463.20;131753;1287;23517;-74
2023/04/04 03:22:40;;;;;;;13.30;6.70;;;;;;;-3.17;100.00;99461.31;131882;1287;22611;-81
2023/04/04 03:25:43;;;;;;;9.00;5.90;;;;;;;-3.21;100.00;99463.70;131852;1287;25462;-75
2023/04/04 03:28:46;;;;;;;13.00;6.60;;;;;;;-3.23;100.00;99463.46;131930;1287;22536;-76
2023/04/04 03:31:49;;;;;;;14.60;7.40;;;;;;;-3.22;100.00;99470.45;131907;1287;22572;-76
2023/04/04 03:34:52;;;;;;;9.50;6.60;;;;;;;-3.23;100.00;99464.67;131720;1287;23173;-74
2023/04/04 03:37:55;;;;;;;8.50;6.10;;;;;;;-3.23;100.00;99465.36;131837;1288;22545;-75
2023/04/04 03:40:58;;;;;;;9.90;6.30;;;;;;;-3.23;100.00;99463.81;131867;1288;25331;-75
2023/04/04 03:44:04;;;;;;;14.20;6.90;;;;;;;-3.23;100.00;99464.52;131879;1283;25568;-79
2023/04/04 03:47:07;;;;;;;9.40;6.90;;;;;;;-3.23;100.00;99461.95;131915;1288;22604;-74
2023/04/04 03:50:10;;;;;;;15.50;7.90;;;;;;;-3.20;100.00;99460.79;131805;1288;25548;-74
2023/04/04 03:53:13;;;;;;;19.90;9.50;;;;;;;-3.16;100.00;99453.58;131699;1288;22804;-75
2023/04/04 03:56:16;;;;;;;12.50;7.30;;;;;;;-3.10;100.00;99455.02;131817;1288;23668;-74
2023/04/04 03:59:20;;;;;;;13.10;6.90;;;;;;;-3.06;100.00;99454.61;131790;1288;26512;-75
2023/04/04 04:02:23;;;;;;;11.60;7.30;;;;;;;-3.01;100.00;99452.84;131721;1288;25410;-75
2023/04/04 04:05:26;;;;;;;20.40;11.50;;;;;;;-2.98;100.00;99450.64;131752;1288;22554;-75
2023/04/04 04:08:29;;;;;;;26.00;15.10;;;;;;;-2.97;100.00;99449.91;132085;1287;22550;-74
2023/04/04 04:11:31;;;;;;;30.40;17.50;;;;;;;-2.95;100.00;99447.39;131878;1287;24201;-76
2023/04/04 04:14:34;;;;;;;16.40;9.60;;;;;;;-2.91;100.00;99444.35;132108;1287;22493;-75
2023/04/04 04:17:37;;;;;;;13.80;9.90;;;;;;;-2.87;100.00;99440.34;132528;1288;24386;-74
2023/04/04 04:20:39;;;;;;;14.40;7.70;;;;;;;-2.84;100.00;99444.15;132560;1288;22547;-76
2023/04/04 04:23:42;;;;;;;13.70;7.50;;;;;;;-2.82;100.00;99446.42;132283;1288;24279;-75
2023/04/04 04:26:45;;;;;;;12.60;7.00;;;;;;;-2.80;100.00;99446.83;131990;1280;23229;-75
2023/04/04 04:29:48;;;;;;;10.40;6.20;;;;;;;-2.78;100.00;99446.54;132000;1288;24229;-76
2023/04/04 04:32:50;;;;;;;15.40;7.80;;;;;;;-2.74;100.00;99445.86;131801;1288;25238;-76
2023/04/04 04:35:53;;;;;;;15.40;8.00;;;;;;;-2.72;100.00;99447.10;131774;1288;25290;-76
2023/04/04 04:38:56;;;;;;;10.40;6.20;;;;;;;-2.70;100.00;99443.22;131760;1288;22578;-76
2023/04/04 04:41:58;;;;;;;13.40;8.00;;;;;;;-2.66;100.00;99443.38;131856;1288;22558;-77
2023/04/04 04:45:01;;;;;;;14.80;7.10;;;;;;;-2.62;100.00;99442.65;131888;1288;22552;-77
2023/04/04 04:48:04;;;;;;;13.80;6.60;;;;;;;-2.57;100.00;99445.63;131795;1287;25526;-77
2023/04/04 04:51:07;;;;;;;9.60;6.10;;;;;;;-2.55;100.00;99440.10;131745;1287;22619;-78
2023/04/04 04:54:10;;;;;;;10.30;6.60;;;;;;;-2.53;100.00;99442.89;131731;1288;22549;-79
2023/04/04 04:57:13;;;;;;;11.30;8.50;;;;;;;-2.51;100.00;99448.10;131674;1288;25235;-79
2023/04/04 05:00:16;;;;;;;13.50;6.60;;;;;;;-2.48;100.00;99446.38;131637;1288;22774;-76
2023/04/04 05:03:18;;;;;;;15.40;8.60;;;;;;;-2.46;100.00;99448.52;131677;1288;22658;-76
2023/04/04 05:06:21;;;;;;;16.50;8.10;;;;;;;-2.45;100.00;99455.30;131883;1271;22533;-76
2023/04/04 05:09:24;;;;;;;23.70;9.80;;;;;;;-2.43;100.00;99453.31;131852;1288;25356;-76
2023/04/04 05:12:27;;;;;;;14.50;7.70;;;;;;;-2.41;100.00;99456.79;131736;1288;25334;-75
2023/04/04 05:15:30;;;;;;;13.50;8.10;;;;;;;-2.42;100.00;99459.58;131697;1288;22945;-77
2023/04/04 05:18:33;;;;;;;11.00;6.20;;;;;;;-2.40;100.00;99461.89;131716;1288;22679;-75
2023/04/04 05:21:35;;;;;;;8.20;6.10;;;;;;;-2.36;100.00;99462.02;131889;1286;22574;-75
2023/04/04 05:24:38;;;;;;;7.30;5.20;;;;;;;-2.26;100.00;99462.36;131789;1287;22545;-76
2023/04/04 05:27:41;;;;;;;11.00;5.70;;;;;;;-2.24;100.00;99461.73;131887;1287;23943;-78
2023/04/04 05:30:44;;;;;;;11.00;5.80;;;;;;;-2.28;100.00;99461.41;131974;1287;22537;-76
2023/04/04 05:33:47;;;;;;;9.50;4.70;;;;;;;-2.29;100.00;99454.77;131890;1287;24423;-76
2023/04/04 05:36:51;;;;;;;8.80;5.70;;;;;;;-2.31;100.00;99457.45;132046;1288;23951;-75
2023/04/04 05:39:55;;;;;;;10.70;5.20;;;;;;;-2.31;100.00;99465.48;131994;1287;22674;-77
2023/04/04 05:42:57;;;;;;;8.40;5.50;;;;;;;-2.32;100.00;99462.61;131838;1288;22558;-75
2023/04/04 05:46:00;;;;;;;14.90;6.00;;;;;;;-2.29;100.00;99467.59;131978;1288;22551;-76
2023/04/04 05:49:03;;;;;;;10.50;6.40;;;;;;;-2.20;100.00;99464.79;131818;1287;24240;-77
2023/04/04 05:52:06;;;;;;;12.80;6.50;;;;;;;-2.08;100.00;99465.98;131714;1287;22537;-76
2023/04/04 05:55:09;;;;;;;15.80;6.30;;;;;;;-1.99;100.00;99465.85;131932;1287;22531;-76
2023/04/04 05:58:11;;;;;;;9.40;5.70;;;;;;;-1.85;100.00;99464.23;131895;1287;22553;-76
2023/04/04 06:01:14;;;;;;;10.90;5.50;;;;;;;-1.69;100.00;99471.73;131712;1287;24270;-75
2023/04/04 06:04:17;;;;;;;8.50;5.80;;;;;;;-1.60;100.00;99476.90;131925;1281;22632;-75
2023/04/04 06:07:20;;;;;;;11.20;6.70;;;;;;;-1.53;100.00;99478.41;131672;1287;26508;-75
2023/04/04 06:10:23;;;;;;;9.80;5.80;;;;;;;-1.47;100.00;99477.73;131704;1288;23017;-75
2023/04/04 06:13:25;;;;;;;17.20;7.70;;;;;;;-1.37;100.00;99473.61;131680;1287;23884;-75
2023/04/04 06:16:28;;;;;;;25.30;12.10;;;;;;;-1.27;100.00;99474.39;131699;1288;24335;-75
2023/04/04 06:19:31;;;;;;;13.50;8.30;;;;;;;-1.18;100.00;99473.88;131763;1286;23135;-76
2023/04/04 06:22:36;;;;;;;10.30;6.30;;;;;;;-1.13;100.00;99470.65;131746;1282;22580;-75
2023/04/04 06:25:39;;;;;;;9.90;6.10;;;;;;;-0.99;100.00;99469.53;131718;1287;22537;-76
2023/04/04 06:28:42;;;;;;;9.80;6.20;;;;;;;-0.92;100.00;99468.60;131712;1288;24286;-75
2023/04/04 06:31:45;;;;;;;13.10;6.90;;;;;;;-0.85;100.00;99469.90;131893;1287;26512;-76
2023/04/04 06:34:47;;;;;;;28.00;15.90;;;;;;;-0.80;100.00;99471.15;131912;1287;22615;-76
2023/04/04 06:37:50;;;;;;;19.00;10.00;;;;;;;-0.73;100.00;99472.98;131816;1288;22803;-76
2023/04/04 06:40:53;;;;;;;15.30;9.30;;;;;;;-0.71;100.00;99474.91;131664;1286;22540;-75
2023/04/04 06:43:55;;;;;;;16.40;10.00;;;;;;;-0.74;100.00;99472.86;131778;1288;22532;-76
2023/04/04 06:46:58;;;;;;;13.00;7.80;;;;;;;-0.76;100.00;99469.02;131740;1287;22603;-79
2023/04/04 06:50:01;;;;;;;15.40;7.20;;;;;;;-0.78;100.00;99467.13;131814;1287;22786;-81
2023/04/04 06:53:04;;;;;;;7.20;5.90;;;;;;;-0.74;100.00;99467.55;132110;1288;24295;-76
2023/04/04 06:56:07;;;;;;;11.00;6.30;;;;;;;-0.68;100.00;99473.19;132036;1281;22538;-81
2023/04/04 06:59:11;;;;;;;10.60;6.20;;;;;;;-0.64;100.00;99469.70;132199;1281;22945;-77
2023/04/04 07:02:14;;;;;;;10.60;5.30;;;;;;;-0.62;100.00;99471.84;131924;1288;22550;-77
2023/04/04 07:05:17;;;;;;;8.70;5.00;;;;;;;-0.59;100.00;99462.89;131808;1288;22657;-81
2023/04/04 07:08:20;;;;;;;7.90;5.00;;;;;;;-0.52;100.00;99460.27;131893;1288;22559;-80
2023/04/04 07:11:23;;;;;;;9.20;5.00;;;;;;;-0.54;100.00;99460.89;132136;1287;25282;-78
2023/04/04 07:14:26;;;;;;;10.60;5.70;;;;;;;-0.46;100.00;99458.54;132025;1287;24273;-79
2023/04/04 07:17:29;;;;;;;11.80;5.20;;;;;;;-0.37;100.00;99459.02;132083;1281;24239;-76
2023/04/04 07:20:32;;;;;;;10.10;4.80;;;;;;;-0.32;100.00;99465.00;131933;1283;22582;-76
2023/04/04 07:23:35;;;;;;;10.70;4.70;;;;;;;-0.22;100.00;99456.21;132103;1280;24343;-74
2023/04/04 07:26:38;;;;;;;5.90;4.50;;;;;;;-0.10;100.00;99456.80;132135;1281;22595;-78
2023/04/04 07:29:41;;;;;;;12.20;4.30;;;;;;;-0.01;100.00;99459.23;131953;1281;23884;-79
2023/04/04 07:32:44;;;;;;;6.30;3.70;;;;;;;0.06;100.00;99460.67;132468;1281;24296;-75
2023/04/04 07:35:47;;;;;;;5.10;4.40;;;;;;;0.07;100.00;99459.54;131811;1288;22598;-77
2023/04/04 07:38:50;;;;;;;7.70;4.20;;;;;;;0.14;100.00;99455.67;131828;1281;23871;-77
2023/04/04 07:41:53;;;;;;;6.70;4.60;;;;;;;0.22;100.00;99457.22;131952;1281;25258;-77
2023/04/04 07:44:55;;;;;;;8.70;4.70;;;;;;;0.36;100.00;99456.02;132008;1280;22548;-77
2023/04/04 07:47:58;;;;;;;9.00;5.40;;;;;;;0.44;100.00;99460.17;131826;1287;22839;-76
2023/04/04 07:51:01;;;;;;;14.70;7.10;;;;;;;0.46;100.00;99458.62;131911;1287;22540;-80
